Time;durP1;ratioP1;P1;durP2;ratioP2;P2;SDS_P1;SDS_P2;PMS_P1;PMS_P2;Temp;Humidity;BMP_temperature;BMP_pressure;BME280_temperature;BME280_humidity;BME280_pressure;Samples;Min_cycle;Max_cycle;Signal;HPM_P1;HPM_P2
2023/09/29 00:00:20;;;;;;;9.90;5.87;;;;;;;18.43;53.46;100378.94;7682389;32;40048;-79
2023/09/29 00:04:36;;;;;;;9.38;6.22;;;;;;;18.37;53.56;100383.75;7683830;32;37788;-79
2023/09/29 00:08:53;;;;;;;13.48;5.65;;;;;;;18.38;53.39;100390.91;7683446;32;37931;-79
2023/09/29 00:13:11;;;;;;;13.98;7.07;;;;;;;18.12;54.23;100385.91;7683285;32;39274;-80
2023/09/29 00:17:27;;;;;;;12.35;6.15;;;;;;;18.21;54.03;100386.00;7686504;32;39787;-79
2023/09/29 00:21:44;;;;;;;13.10;6.00;;;;;;;18.47;53.37;100379.94;7686337;32;38210;-79
2023/09/29 00:26:00;;;;;;;14.02;6.82;;;;;;;17.82;56.33;100382.63;7686240;32;37274;-80
2023/09/29 00:30:17;;;;;;;15.60;6.87;;;;;;;17.92;56.34;100378.91;7686383;32;39387;-79
2023/09/29 00:34:33;;;;;;;10.57;6.10;;;;;;;17.83;56.30;100380.69;7686289;32;40729;-79
2023/09/29 00:38:50;;;;;;;11.55;6.20;;;;;;;17.69;56.54;100382.63;7685006;32;37971;-79
2023/09/29 00:43:06;;;;;;;11.15;6.30;;;;;;;17.77;56.26;100384.69;7685019;32;37068;-79
2023/09/29 00:47:23;;;;;;;14.40;7.15;;;;;;;17.76;56.12;100381.09;7672325;32;39413;-80
2023/09/29 00:51:39;;;;;;;13.65;6.18;;;;;;;17.79;55.86;100387.94;7659875;32;39882;-79
2023/09/29 00:55:56;;;;;;;13.57;6.80;;;;;;;17.72;56.42;100387.53;7659575;32;38258;-79
2023/09/29 01:04:35;;;;;;;;;;;;;;;18.02;55.61;100386.97;7660046;32;39310;-79
2023/09/29 01:08:52;;;;;;;13.90;6.72;;;;;;;18.05;55.72;100382.75;7658603;32;40956;-80
2023/09/29 01:13:09;;;;;;;16.55;6.35;;;;;;;17.61;56.97;100381.41;7659488;32;38644;-80
2023/09/29 01:17:25;;;;;;;13.95;6.95;;;;;;;17.71;56.48;100386.69;7659522;32;37790;-79
2023/09/29 01:21:45;;;;;;;13.57;6.93;;;;;;;17.73;56.95;100386.41;7658666;32;39334;-79
2023/09/29 01:26:05;;;;;;;15.50;5.95;;;;;;;17.70;56.85;100385.09;7658018;32;39861;-78
2023/09/29 01:30:21;;;;;;;13.15;6.95;;;;;;;17.61;56.82;100382.22;7659409;32;37708;-79
2023/09/29 01:34:38;;;;;;;14.40;6.78;;;;;;;17.50;57.27;100379.94;7658187;32;37837;-80
2023/09/29 01:38:54;;;;;;;11.15;7.12;;;;;;;17.42;57.71;100378.72;7670625;32;39255;-78
2023/09/29 01:43:11;;;;;;;11.40;6.43;;;;;;;17.42;57.61;100373.22;7685455;32;40866;-79
2023/09/29 01:47:27;;;;;;;11.85;7.20;;;;;;;17.51;57.46;100376.09;7685597;32;38057;-79
2023/09/29 01:51:44;;;;;;;12.90;6.65;;;;;;;17.38;57.78;100372.16;7685551;32;37258;-79
2023/09/29 01:56:02;;;;;;;15.68;6.95;;;;;;;17.34;58.19;100376.66;7685499;32;39378;-79
2023/09/29 02:00:24;;;;;;;15.27;6.65;;;;;;;17.13;58.63;100370.69;7684274;32;39920;-79
2023/09/29 02:04:41;;;;;;;;;;;;;;;17.36;57.80;100371.66;7685621;32;38504;-79
2023/09/29 02:08:57;;;;;;;18.48;8.02;;;;;;;17.39;57.81;100362.78;7685571;32;37409;-78
2023/09/29 02:13:15;;;;;;;12.98;6.57;;;;;;;17.39;57.46;100363.59;7685280;32;39351;-78
2023/09/29 02:17:35;;;;;;;14.38;7.05;;;;;;;17.37;57.89;100370.56;7685181;32;39689;-77
2023/09/29 02:21:51;;;;;;;10.40;6.30;;;;;;;17.21;58.18;100368.06;7684991;32;38506;-78
2023/09/29 02:26:08;;;;;;;11.30;6.55;;;;;;;17.17;57.89;100364.25;7659448;32;37081;-78
2023/09/29 02:30:25;;;;;;;11.18;6.93;;;;;;;17.24;57.36;100367.44;7658752;32;39337;-79
2023/09/29 02:34:43;;;;;;;12.05;6.87;;;;;;;17.07;57.53;100373.53;7668160;32;39987;-78
2023/09/29 02:39:03;;;;;;;12.50;6.97;;;;;;;17.24;57.05;100372.13;7684328;32;37894;-79
2023/09/29 02:43:20;;;;;;;12.73;7.10;;;;;;;17.08;57.48;100366.88;7685076;32;36932;-79
2023/09/29 02:47:39;;;;;;;14.02;6.80;;;;;;;17.12;57.50;100369.84;7684957;32;39306;-79
2023/09/29 02:51:55;;;;;;;11.00;6.30;;;;;;;17.36;56.94;100371.66;7684893;32;40666;-79
2023/09/29 02:56:12;;;;;;;11.68;6.82;;;;;;;17.40;56.46;100367.16;7683603;32;38291;-80
2023/09/29 03:00:29;;;;;;;13.13;6.30;;;;;;;17.38;56.26;100366.66;7683358;32;37091;-79
2023/09/29 03:04:47;;;;;;;12.13;6.03;;;;;;;17.24;56.70;100370.19;7684583;32;39451;-79
2023/09/29 03:09:03;;;;;;;14.10;7.32;;;;;;;17.06;57.01;100362.81;7684507;32;40820;-79
2023/09/29 03:13:19;;;;;;;10.25;6.20;;;;;;;16.85;57.63;100362.31;7684577;32;38210;-79
2023/09/29 03:17:37;;;;;;;10.75;6.47;;;;;;;17.06;56.83;100362.81;7684596;32;37326;-79
2023/09/29 03:21:53;;;;;;;11.55;6.53;;;;;;;17.07;56.86;100358.91;7684043;32;39006;-79
2023/09/29 03:26:10;;;;;;;11.30;6.18;;;;;;;16.96;57.43;100365.75;7684097;32;41010;-78
2023/09/29 03:30:26;;;;;;;13.82;6.12;;;;;;;17.08;56.90;100361.38;7682884;32;38652;-79
2023/09/29 03:34:43;;;;;;;11.75;6.00;;;;;;;17.09;56.73;100356.69;7684205;32;37830;-79
2023/09/29 03:38:59;;;;;;;12.95;5.87;;;;;;;17.10;56.68;100374.84;7684187;32;40024;-79
2023/09/29 03:43:19;;;;;;;11.48;6.22;;;;;;;17.01;56.66;100374.72;7683972;32;40661;-79
2023/09/29 03:47:35;;;;;;;11.77;6.05;;;;;;;17.23;55.94;100371.31;7683203;32;37975;-79
2023/09/29 03:51:52;;;;;;;12.25;5.90;;;;;;;17.11;56.31;100368.25;7683270;32;37293;-79
2023/09/29 03:56:09;;;;;;;12.13;6.15;;;;;;;17.02;56.47;100370.03;7683766;32;39340;-79
2023/09/29 04:00:26;;;;;;;12.07;6.10;;;;;;;17.11;56.09;100371.00;7682418;32;40708;-79
2023/09/29 04:04:42;;;;;;;10.70;6.28;;;;;;;16.88;56.83;100373.56;7660004;32;37930;-80
2023/09/29 04:08:58;;;;;;;15.68;6.28;;;;;;;16.92;56.70;100376.53;7657117;32;37851;-79
2023/09/29 04:13:15;;;;;;;14.38;6.72;;;;;;;17.01;56.27;100368.41;7657096;32;39387;-79
2023/09/29 04:17:31;;;;;;;12.32;6.37;;;;;;;16.91;56.45;100368.56;7656963;32;40743;-79
2023/09/29 04:21:47;;;;;;;15.02;6.18;;;;;;;16.98;56.12;100364.31;7656609;32;37805;-78
2023/09/29 04:26:04;;;;;;;10.98;6.50;;;;;;;16.85;56.69;100371.41;7656607;32;37568;-78
2023/09/29 04:30:20;;;;;;;12.63;6.05;;;;;;;16.85;56.75;100370.56;7675883;32;39581;-77
2023/09/29 04:34:36;;;;;;;10.32;6.00;;;;;;;16.98;56.36;100380.03;7682978;32;40845;-79
2023/09/29 04:38:52;;;;;;;13.10;6.45;;;;;;;16.98;56.12;100380.81;7682605;32;38948;-79
2023/09/29 04:43:10;;;;;;;9.70;5.82;;;;;;;16.93;56.14;100383.66;7682636;32;36960;-78
2023/09/29 04:47:27;;;;;;;11.30;5.82;;;;;;;16.91;56.23;100379.59;7682731;32;40226;-79
2023/09/29 04:51:44;;;;;;;13.13;6.72;;;;;;;16.95;56.65;100380.63;7682474;32;40774;-79
2023/09/29 04:56:00;;;;;;;10.88;6.22;;;;;;;16.95;57.18;100392.44;7675653;32;38716;-79
2023/09/29 05:00:17;;;;;;;16.17;5.35;;;;;;;16.92;56.75;100393.06;7657888;32;37276;-78
2023/09/29 05:04:33;;;;;;;11.10;5.32;;;;;;;16.78;57.11;100390.22;7686036;32;39804;-78
2023/09/29 05:08:50;;;;;;;10.50;5.95;;;;;;;16.80;57.09;100390.72;7686002;32;40587;-78
2023/09/29 05:13:07;;;;;;;12.52;5.93;;;;;;;16.70;57.21;100394.44;7685875;32;38857;-78
2023/09/29 05:17:24;;;;;;;11.93;5.90;;;;;;;16.74;57.03;100389.16;7673843;32;37315;-78
2023/09/29 05:21:59;;;;;;;12.98;6.82;;;;;;;16.77;57.05;100388.56;7659519;32;39321;-78
2023/09/29 05:26:15;;;;;;;13.85;6.28;;;;;;;16.86;56.99;100391.50;7659291;32;40704;-78
2023/09/29 05:30:32;;;;;;;18.65;6.47;;;;;;;17.00;56.64;100392.34;7659383;32;38804;-78
2023/09/29 05:34:49;;;;;;;12.90;5.72;;;;;;;17.20;56.04;100404.19;7659391;32;37794;-79
2023/09/29 05:39:05;;;;;;;10.20;5.80;;;;;;;17.15;55.96;100396.81;7659317;32;40088;-79
2023/09/29 05:43:21;;;;;;;12.18;5.95;;;;;;;17.31;55.84;100393.78;7659201;32;39622;-79
2023/09/29 05:47:38;;;;;;;11.05;6.40;;;;;;;17.20;57.30;100398.66;7659142;32;37838;-78
2023/09/29 05:51:54;;;;;;;12.23;6.03;;;;;;;17.35;57.39;100397.56;7659808;32;37936;-78
2023/09/29 05:56:13;;;;;;;18.50;6.40;;;;;;;17.40;56.63;100398.31;7659050;32;40477;-78
2023/09/29 06:00:30;;;;;;;9.45;5.87;;;;;;;17.62;55.75;100400.38;7659621;32;39863;-77
2023/09/29 06:04:46;;;;;;;11.55;6.60;;;;;;;17.76;56.10;100407.84;7659444;32;38646;-77
2023/09/29 06:09:04;;;;;;;12.23;6.87;;;;;;;17.86;56.06;100412.38;7683948;32;37864;-63
2023/09/29 06:13:20;;;;;;;12.82;6.28;;;;;;;18.12;57.46;100412.69;7684417;32;39378;-63
2023/09/29 06:17:37;;;;;;;12.13;6.57;;;;;;;18.41;56.46;100408.78;7685208;32;40827;-78
2023/09/29 06:21:53;;;;;;;16.08;6.75;;;;;;;18.51;55.40;100403.84;7669784;32;37751;-78
2023/09/29 06:26:10;;;;;;;12.73;6.22;;;;;;;18.70;54.29;100412.00;7658578;32;36946;-78
2023/09/29 06:30:26;;;;;;;12.98;6.68;;;;;;;18.64;53.29;100409.66;7658658;32;40093;-78
2023/09/29 06:34:42;;;;;;;15.55;6.25;;;;;;;18.71;53.15;100410.88;7658580;32;39989;-83
2023/09/29 06:38:58;;;;;;;17.90;6.78;;;;;;;18.81;53.33;100414.53;7670586;32;38870;-76
2023/09/29 06:43:17;;;;;;;10.05;6.28;;;;;;;18.95;54.33;100426.34;7687516;32;38590;-68
2023/09/29 06:47:36;;;;;;;16.75;6.57;;;;;;;19.17;53.35;100419.22;7679669;32;38624;-82
2023/09/29 06:51:53;;;;;;;10.25;6.03;;;;;;;18.79;54.67;100419.53;7652453;32;39758;-83
2023/09/29 06:56:10;;;;;;;15.82;6.93;;;;;;;18.90;54.66;100424.56;7657887;32;38788;-81
2023/09/29 07:00:27;;;;;;;11.38;5.68;;;;;;;19.21;54.57;100428.50;7660060;32;37902;-82
2023/09/29 07:04:43;;;;;;;11.75;6.55;;;;;;;19.01;55.90;100433.41;7683582;32;39215;-81
2023/09/29 07:09:00;;;;;;;13.98;5.97;;;;;;;19.49;54.65;100431.97;7673733;32;40101;-82
2023/09/29 07:13:16;;;;;;;10.60;5.60;;;;;;;19.81;53.65;100443.87;7656524;32;37995;-81
2023/09/29 07:17:33;;;;;;;12.48;5.95;;;;;;;19.48;54.30;100433.87;7657893;32;37965;-82
2023/09/29 07:21:49;;;;;;;12.43;5.30;;;;;;;19.57;53.10;100442.22;7656917;32;40581;-82
2023/09/29 07:26:06;;;;;;;11.80;5.70;;;;;;;20.08;52.52;100429.81;7676749;32;39658;-81
2023/09/29 07:30:22;;;;;;;9.82;6.00;;;;;;;20.22;52.24;100435.22;7683474;32;38654;-82
2023/09/29 07:34:38;;;;;;;16.85;6.18;;;;;;;20.41;51.96;100426.66;7682283;32;37079;-81
2023/09/29 07:38:55;;;;;;;11.12;5.87;;;;;;;20.86;51.15;100428.34;7666091;32;39420;-81
2023/09/29 07:43:11;;;;;;;20.50;5.53;;;;;;;20.98;50.15;100422.16;7663115;32;39703;-81
2023/09/29 07:47:28;;;;;;;11.50;5.78;;;;;;;21.22;49.87;100429.97;7670503;32;37855;-81
2023/09/29 07:51:44;;;;;;;8.95;4.97;;;;;;;21.50;50.07;100424.88;7682688;32;37203;-82
2023/09/29 07:56:01;;;;;;;13.25;6.00;;;;;;;21.92;46.79;100421.47;7677452;32;40046;-65
2023/09/29 08:00:17;;;;;;;10.52;5.78;;;;;;;22.28;48.13;100415.47;7656213;32;39881;-65
2023/09/29 08:04:33;;;;;;;9.73;5.20;;;;;;;22.10;48.39;100423.03;7655578;32;38604;-81
2023/09/29 08:08:50;;;;;;;8.23;5.03;;;;;;;22.22;47.08;100421.53;7678701;32;37289;-83
2023/09/29 08:13:06;;;;;;;9.20;5.05;;;;;;;22.76;44.26;100427.22;7668594;32;39382;-82
2023/09/29 08:17:22;;;;;;;9.18;4.78;;;;;;;23.40;41.48;100425.22;7669279;32;40792;-80
2023/09/29 08:21:39;;;;;;;15.07;4.87;;;;;;;23.81;40.64;100421.50;7682156;32;38737;-79
2023/09/29 08:25:55;;;;;;;8.02;4.78;;;;;;;24.11;39.54;100421.31;7676644;32;37133;-79
2023/09/29 08:30:11;;;;;;;11.30;5.28;;;;;;;24.37;37.95;100422.94;7665841;32;39100;-79
2023/09/29 08:34:30;;;;;;;9.77;5.10;;;;;;;24.60;37.75;100426.03;7675694;32;39907;-80
2023/09/29 08:38:46;;;;;;;14.05;5.00;;;;;;;25.05;36.24;100424.16;7685829;32;37815;-80
2023/09/29 08:43:06;;;;;;;13.32;5.28;;;;;;;25.35;35.57;100416.25;7684772;32;37208;-81
2023/09/29 08:47:24;;;;;;;8.50;4.62;;;;;;;25.54;35.83;100414.75;7683092;32;39350;-82
2023/09/29 08:51:46;;;;;;;8.68;4.35;;;;;;;25.86;34.43;100422.00;7683936;32;40049;-82
2023/09/29 08:56:11;;;;;;;11.50;4.15;;;;;;;26.25;32.92;100413.00;7684564;32;38046;-83
2023/09/29 09:00:28;;;;;;;11.43;4.55;;;;;;;26.12;32.92;100415.06;7686089;32;37886;-82
2023/09/29 09:04:44;;;;;;;7.57;4.47;;;;;;;25.98;33.40;100407.16;7684600;32;39418;-83
2023/09/29 09:09:00;;;;;;;12.18;4.60;;;;;;;26.66;32.69;100407.13;7685992;32;40859;-83
2023/09/29 09:13:26;;;;;;;9.52;4.65;;;;;;;26.69;32.66;100401.59;7685944;32;37904;-82
2023/09/29 09:17:45;;;;;;;10.55;5.00;;;;;;;27.17;32.52;100405.00;7686071;32;37884;-82
2023/09/29 09:22:11;;;;;;;10.13;4.37;;;;;;;27.77;31.30;100405.69;7685900;32;39923;-83
2023/09/29 09:26:31;;;;;;;9.60;4.45;;;;;;;27.94;31.90;100399.63;7684585;32;39758;-83
2023/09/29 09:30:51;;;;;;;10.30;4.95;;;;;;;27.97;30.89;100398.84;7684848;32;38667;-83
2023/09/29 09:35:07;;;;;;;9.50;4.50;;;;;;;28.17;31.00;100396.78;7685370;32;37162;-82
2023/09/29 09:39:24;;;;;;;8.35;4.60;;;;;;;28.00;30.76;100392.50;7685541;32;39361;-83
2023/09/29 09:43:41;;;;;;;10.25;4.22;;;;;;;28.68;30.37;100387.09;7685558;32;39995;-83
2023/09/29 09:47:58;;;;;;;7.60;3.97;;;;;;;28.79;30.28;100392.87;7685413;32;37951;-83
2023/09/29 09:52:34;;;;;;;10.52;4.20;;;;;;;29.45;28.56;100390.41;7685723;32;37167;-83
2023/09/29 09:57:09;;;;;;;11.12;4.75;;;;;;;29.94;28.49;100385.63;7685634;32;39421;-83
2023/09/29 10:01:26;;;;;;;7.60;4.43;;;;;;;29.82;28.36;100374.69;7685582;32;40675;-83
2023/09/29 10:05:51;;;;;;;10.40;3.95;;;;;;;30.10;27.88;100379.75;7685293;32;38044;-83
2023/09/29 10:10:09;;;;;;;14.35;4.70;;;;;;;30.24;27.31;100374.22;7685563;32;37883;-83
2023/09/29 10:14:27;;;;;;;8.73;4.22;;;;;;;30.71;27.59;100378.09;7684277;32;38390;-84
2023/09/29 10:18:53;;;;;;;9.77;4.85;;;;;;;30.81;27.06;100370.91;7684210;32;39936;-83
2023/09/29 10:23:15;;;;;;;10.45;5.10;;;;;;;31.12;26.53;100376.28;7684165;32;37950;-84
2023/09/29 10:27:33;;;;;;;13.75;4.75;;;;;;;31.16;24.70;100365.81;7685103;32;37806;-85
2023/09/29 10:31:49;;;;;;;13.68;4.45;;;;;;;31.26;24.62;100367.84;7685245;32;38590;-83
2023/09/29 10:36:09;;;;;;;8.63;4.32;;;;;;;31.06;25.44;100364.56;7684993;32;40783;-83
2023/09/29 10:40:32;;;;;;;9.18;3.97;;;;;;;30.68;25.76;100364.00;7685103;32;37966;-83
2023/09/29 10:44:52;;;;;;;9.38;4.53;;;;;;;30.73;25.79;100366.44;7685080;32;37021;-83
2023/09/29 10:49:10;;;;;;;7.85;3.83;;;;;;;31.16;25.75;100365.81;7685089;32;39812;-83
2023/09/29 10:53:35;;;;;;;9.40;3.92;;;;;;;31.71;24.56;100351.41;7684783;32;39856;-83
2023/09/29 10:57:51;;;;;;;9.80;3.78;;;;;;;31.67;23.23;100350.59;7684159;32;38666;-83
2023/09/29 11:02:11;;;;;;;10.57;4.55;;;;;;;31.87;22.92;100344.53;7684789;32;37033;-83
2023/09/29 11:06:28;;;;;;;8.70;3.95;;;;;;;32.06;23.25;100343.34;7683680;32;39136;-83
2023/09/29 11:10:55;;;;;;;9.13;4.10;;;;;;;32.00;22.34;100337.28;7684705;32;40013;-83
2023/09/29 11:15:12;;;;;;;6.05;3.70;;;;;;;31.67;22.88;100328.06;7684646;32;39264;-83
2023/09/29 11:19:30;;;;;;;7.28;3.65;;;;;;;32.15;21.06;100330.44;7684546;32;37122;-83
2023/09/29 11:23:48;;;;;;;10.25;3.95;;;;;;;32.35;22.01;100321.50;7684547;32;38374;-83
2023/09/29 11:28:10;;;;;;;6.25;3.58;;;;;;;32.60;21.01;100314.94;7684260;32;40853;-84
2023/09/29 11:32:26;;;;;;;;;;;;;;;32.39;20.62;100316.62;7684742;32;38063;-84
2023/09/29 11:36:43;;;;;;;9.60;3.65;;;;;;;32.95;19.85;100302.69;7684726;32;36829;-84
2023/09/29 11:41:00;;;;;;;7.87;3.70;;;;;;;32.76;20.31;100301.19;7684161;32;39067;-83
2023/09/29 11:45:16;;;;;;;5.75;3.92;;;;;;;32.65;21.39;100294.78;7683987;32;40013;-83
2023/09/29 11:49:32;;;;;;;8.90;3.40;;;;;;;33.23;21.58;100293.25;7683972;32;37767;-83
2023/09/29 11:53:50;;;;;;;8.70;3.40;;;;;;;33.26;18.16;100288.81;7683898;32;37846;-83
2023/09/29 11:58:08;;;;;;;6.50;3.30;;;;;;;33.47;18.38;100285.00;7683918;32;39444;-83
2023/09/29 12:02:24;;;;;;;9.02;3.53;;;;;;;33.31;19.90;100283.50;7683784;32;40722;-83
2023/09/29 12:06:40;;;;;;;13.35;3.80;;;;;;;33.92;18.91;100264.37;7683524;32;38779;-83
2023/09/29 12:10:58;;;;;;;13.77;3.75;;;;;;;34.20;18.81;100257.63;7684599;32;37371;-84
2023/09/29 12:15:17;;;;;;;8.63;3.60;;;;;;;33.83;16.59;100256.41;7685478;32;39625;-84
2023/09/29 12:19:34;;;;;;;7.12;3.45;;;;;;;33.14;19.26;100261.84;7685554;32;39841;-84
2023/09/29 12:23:50;;;;;;;11.25;3.62;;;;;;;33.11;18.82;100265.47;7686345;32;37894;-82
2023/09/29 12:28:06;;;;;;;7.95;3.45;;;;;;;33.50;18.45;100255.91;7686343;32;37280;-83
2023/09/29 12:32:23;;;;;;;10.93;3.87;;;;;;;34.05;18.38;100249.28;7686439;32;40219;-84
2023/09/29 12:36:39;;;;;;;7.62;4.15;;;;;;;33.84;18.56;100243.84;7674997;32;40005;-83
2023/09/29 12:40:55;;;;;;;8.60;3.42;;;;;;;33.65;19.65;100236.75;7671608;32;37741;-84
2023/09/29 12:45:21;;;;;;;12.45;4.00;;;;;;;33.95;18.04;100235.28;7672545;32;37135;-84
2023/09/29 12:49:38;;;;;;;5.90;3.42;;;;;;;34.10;19.10;100233.06;7673260;32;39421;-83
2023/09/29 12:53:54;;;;;;;7.65;3.80;;;;;;;34.28;17.70;100227.22;7671443;32;39941;-83
2023/09/29 12:58:11;;;;;;;7.57;3.62;;;;;;;34.15;17.07;100229.75;7672313;32;37925;-84
2023/09/29 13:02:31;;;;;;;9.65;3.70;;;;;;;33.64;18.24;100227.50;7672024;32;37130;-83
2023/09/29 13:06:49;;;;;;;9.32;3.50;;;;;;;33.72;19.77;100224.59;7671864;32;40322;-84
2023/09/29 13:11:07;;;;;;;9.43;3.95;;;;;;;33.92;19.21;100217.09;7672033;32;40000;-77
2023/09/29 13:15:25;;;;;;;7.47;3.58;;;;;;;33.60;17.97;100211.78;7659684;32;38735;-81
2023/09/29 13:19:41;;;;;;;11.48;3.60;;;;;;;33.72;18.78;100219.78;7659715;32;36986;-81
2023/09/29 13:23:58;;;;;;;7.68;3.33;;;;;;;34.30;18.34;100208.59;7659014;32;40302;-85
2023/09/29 13:28:16;;;;;;;8.82;3.65;;;;;;;34.37;19.42;100204.84;7659169;32;40002;-85
2023/09/29 13:32:32;;;;;;;7.70;3.45;;;;;;;34.75;18.14;100207.56;7659501;32;38000;-85
2023/09/29 13:36:48;;;;;;;7.87;3.45;;;;;;;34.92;18.04;100209.31;7659301;32;37196;-85
2023/09/29 13:41:06;;;;;;;12.48;3.95;;;;;;;35.06;17.18;100205.44;7659175;32;40123;-86
2023/09/29 13:45:22;;;;;;;6.57;3.47;;;;;;;34.68;17.09;100211.28;7653677;32;40010;-82
2023/09/29 13:49:40;;;;;;;7.62;3.35;;;;;;;34.76;17.81;100207.16;7657316;32;37386;-82
2023/09/29 13:53:56;;;;;;;6.07;3.72;;;;;;;34.93;16.38;100193.94;7658632;32;37723;-81
2023/09/29 13:58:13;;;;;;;15.75;6.87;;;;;;;34.78;16.72;100190.53;7664396;32;40177;-81
2023/09/29 14:02:29;;;;;;;7.07;3.42;;;;;;;34.87;17.51;100195.63;7662280;32;40547;-82
2023/09/29 14:06:46;;;;;;;10.63;4.62;;;;;;;34.68;15.80;100194.28;7657534;32;38746;-81
2023/09/29 14:11:02;;;;;;;11.15;3.80;;;;;;;34.60;17.07;100187.16;7657459;32;36854;-81
2023/09/29 14:15:20;;;;;;;12.02;3.83;;;;;;;34.57;16.74;100182.34;7658548;32;38493;-82
2023/09/29 14:19:36;;;;;;;8.73;3.35;;;;;;;34.71;16.71;100178.53;7658112;32;40813;-81
2023/09/29 14:23:53;;;;;;;6.85;3.50;;;;;;;34.86;16.58;100167.75;7658097;32;37953;-82
2023/09/29 14:28:10;;;;;;;8.38;3.35;;;;;;;34.63;16.72;100177.78;7657617;32;36883;-83
2023/09/29 14:32:26;;;;;;;5.95;3.20;;;;;;;35.18;16.25;100170.81;7657302;32;40099;-82
2023/09/29 14:36:44;;;;;;;7.37;3.17;;;;;;;35.07;16.26;100164.56;7657720;32;40784;-82
2023/09/29 14:41:00;;;;;;;5.72;3.00;;;;;;;35.22;16.55;100164.34;7658282;32;38407;-82
2023/09/29 14:45:17;;;;;;;6.78;3.33;;;;;;;35.50;16.09;100151.69;7657991;32;37005;-82
2023/09/29 14:49:34;;;;;;;10.57;3.03;;;;;;;35.60;16.69;100152.69;7657905;32;40059;-82
2023/09/29 14:53:53;;;;;;;7.55;3.47;;;;;;;35.85;15.77;100153.00;7657949;32;40716;-82
2023/09/29 14:58:11;;;;;;;7.28;3.70;;;;;;;35.72;16.52;100152.06;7657205;32;38081;-82
2023/09/29 15:02:28;;;;;;;6.95;3.40;;;;;;;35.76;15.84;100147.12;7658276;32;37038;-82
2023/09/29 15:06:46;;;;;;;5.78;2.90;;;;;;;35.38;16.24;100144.59;7657455;32;39249;-82
2023/09/29 15:11:05;;;;;;;5.72;3.25;;;;;;;35.06;16.02;100145.97;7657791;32;39045;-82
2023/09/29 15:15:27;;;;;;;10.02;3.30;;;;;;;34.54;16.67;100143.56;7656157;32;38521;-82
2023/09/29 15:19:43;;;;;;;9.00;3.50;;;;;;;34.31;17.01;100141.50;7657651;32;37021;-82
2023/09/29 15:24:00;;;;;;;9.20;3.03;;;;;;;33.68;17.78;100135.03;7649849;32;234633;-82
2023/09/29 15:28:17;;;;;;;8.05;3.53;;;;;;;33.01;18.57;100137.25;7657068;32;40797;-82
2023/09/29 15:32:33;;;;;;;8.57;3.60;;;;;;;33.19;18.22;100142.78;7657113;32;38397;-81
2023/09/29 15:36:51;;;;;;;7.22;3.40;;;;;;;32.57;19.00;100148.06;7679952;32;37169;-82
2023/09/29 15:41:08;;;;;;;6.35;3.42;;;;;;;32.41;19.55;100144.97;7684214;32;39989;-82
2023/09/29 15:45:24;;;;;;;5.90;3.30;;;;;;;32.56;19.53;100146.47;7683878;32;39838;-84
2023/09/29 15:49:41;;;;;;;7.15;3.28;;;;;;;32.29;20.77;100148.25;7683917;32;37980;-82
2023/09/29 15:53:58;;;;;;;6.20;3.70;;;;;;;31.98;20.51;100159.28;7684041;32;37628;-83
2023/09/29 15:58:15;;;;;;;9.20;3.53;;;;;;;31.36;21.53;100160.66;7683655;32;39314;-83
2023/09/29 16:02:32;;;;;;;7.40;3.62;;;;;;;31.28;21.84;100165.47;7683691;32;39770;-83
2023/09/29 16:06:48;;;;;;;5.60;3.40;;;;;;;31.15;22.74;100164.28;7675148;32;37870;-82
2023/09/29 16:11:05;;;;;;;8.80;3.75;;;;;;;30.67;22.96;100157.81;7679467;32;37786;-82
2023/09/29 16:15:22;;;;;;;11.43;4.40;;;;;;;30.69;23.80;100166.66;7669379;32;39949;-83
2023/09/29 16:19:39;;;;;;;13.48;4.68;;;;;;;30.18;24.61;100167.72;7679443;32;39717;-83
2023/09/29 16:23:55;;;;;;;16.40;7.72;;;;;;;29.47;25.24;100173.78;7683006;32;37703;-83
2023/09/29 16:28:12;;;;;;;19.10;6.43;;;;;;;28.84;25.64;100177.28;7681898;32;37855;-83
2023/09/29 16:32:28;;;;;;;9.02;4.10;;;;;;;28.45;27.13;100179.66;7681313;32;39810;-82
2023/09/29 16:36:48;;;;;;;20.27;4.47;;;;;;;27.82;28.05;100192.47;7681615;32;40564;-82
2023/09/29 16:41:04;;;;;;;14.87;4.10;;;;;;;27.48;28.21;100192.44;7681091;32;38118;-82
2023/09/29 16:45:20;;;;;;;14.35;3.60;;;;;;;26.99;28.67;100199.59;7681262;32;36965;-83
2023/09/29 16:49:37;;;;;;;12.52;3.72;;;;;;;26.68;29.81;100207.06;7681864;32;39367;-83
2023/09/29 16:53:53;;;;;;;8.80;3.70;;;;;;;26.31;29.65;100206.72;7681890;32;39830;-82
2023/09/29 16:58:10;;;;;;;9.45;4.03;;;;;;;25.97;31.16;100212.00;7685272;32;38722;-83
2023/09/29 17:02:26;;;;;;;16.92;5.60;;;;;;;25.92;31.49;100217.84;7686248;32;37851;-82
2023/09/29 17:06:42;;;;;;;11.60;4.18;;;;;;;25.59;32.45;100216.31;7686063;32;39263;-82
2023/09/29 17:10:59;;;;;;;14.85;4.62;;;;;;;25.21;33.65;100212.19;7685992;32;40815;-82
2023/09/29 17:15:15;;;;;;;8.13;3.53;;;;;;;24.85;34.27;100222.44;7685913;32;39091;-82
2023/09/29 17:19:34;;;;;;;10.50;4.62;;;;;;;24.87;33.42;100222.88;7685644;32;37072;-83
2023/09/29 17:23:50;;;;;;;14.00;4.85;;;;;;;24.70;33.58;100232.41;7685899;32;39353;-83
2023/09/29 17:28:06;;;;;;;17.35;4.85;;;;;;;24.41;34.50;100225.19;7685343;32;39864;-83
2023/09/29 17:32:23;;;;;;;7.32;4.20;;;;;;;24.27;35.02;100234.75;7685729;32;38059;-83
2023/09/29 17:36:39;;;;;;;14.95;4.20;;;;;;;23.89;36.03;100236.03;7685812;32;36821;-83
2023/09/29 17:40:57;;;;;;;15.10;4.90;;;;;;;23.66;36.18;100237.66;7684587;32;40010;-83
2023/09/29 17:45:14;;;;;;;14.93;4.65;;;;;;;23.50;36.32;100241.13;7685072;32;39589;-83
2023/09/29 17:49:31;;;;;;;9.73;4.30;;;;;;;23.46;36.02;100239.41;7683555;32;38005;-83
2023/09/29 17:53:47;;;;;;;8.02;4.07;;;;;;;23.38;36.28;100238.38;7683929;32;36772;-83
2023/09/29 17:58:04;;;;;;;9.73;4.15;;;;;;;22.91;37.64;100249.88;7685572;32;39039;-82
2023/09/29 18:02:20;;;;;;;10.68;4.28;;;;;;;22.85;36.96;100247.31;7685400;32;40752;-83
2023/09/29 18:06:37;;;;;;;7.03;3.95;;;;;;;22.72;37.50;100242.88;7668997;32;38793;-83
2023/09/29 18:10:53;;;;;;;10.98;4.95;;;;;;;22.70;37.29;100250.75;7658556;32;36991;-81
2023/09/29 18:15:10;;;;;;;10.20;4.12;;;;;;;22.60;37.75;100251.16;7661736;32;39117;-84
2023/09/29 18:19:26;;;;;;;9.05;4.62;;;;;;;22.40;38.18;100253.63;7685233;32;40010;-86
2023/09/29 18:23:42;;;;;;;10.88;3.95;;;;;;;22.22;38.62;100250.16;7685223;32;38115;-83
2023/09/29 18:27:59;;;;;;;8.95;4.32;;;;;;;22.01;39.71;100254.88;7664714;32;37210;-83
2023/09/29 18:32:16;;;;;;;9.85;5.12;;;;;;;22.09;39.53;100262.34;7658689;32;39845;-83
2023/09/29 18:36:33;;;;;;;10.75;5.05;;;;;;;21.95;40.36;100262.59;7658525;32;40755;-83
2023/09/29 18:40:49;;;;;;;10.93;4.22;;;;;;;21.92;40.17;100258.56;7658616;32;37830;-82
2023/09/29 18:45:06;;;;;;;9.13;4.50;;;;;;;21.64;39.87;100257.41;7657395;32;37898;-83
2023/09/29 18:49:23;;;;;;;10.27;4.47;;;;;;;21.60;39.66;100260.06;7659640;32;40064;-82
2023/09/29 18:53:39;;;;;;;8.20;4.95;;;;;;;21.43;39.79;100262.88;7678945;32;40843;-82
2023/09/29 18:57:56;;;;;;;14.48;4.57;;;;;;;21.22;41.18;100268.38;7658453;32;38682;-82
2023/09/29 19:02:13;;;;;;;9.15;4.57;;;;;;;21.00;42.02;100271.03;7658393;32;37310;-84
2023/09/29 19:06:29;;;;;;;12.45;4.95;;;;;;;21.07;41.99;100261.41;7659781;32;39978;-84
2023/09/29 19:10:46;;;;;;;10.23;4.75;;;;;;;20.96;41.87;100267.28;7684643;32;39744;-83
2023/09/29 19:15:02;;;;;;;8.23;4.70;;;;;;;20.91;42.04;100266.66;7684603;32;38127;-83
2023/09/29 19:19:19;;;;;;;11.20;5.05;;;;;;;20.99;41.78;100266.63;7684041;32;37238;-83
2023/09/29 19:23:35;;;;;;;8.70;4.57;;;;;;;20.79;42.04;100256.25;7659866;32;40264;-82
2023/09/29 19:27:57;;;;;;;10.38;4.90;;;;;;;20.76;42.34;100256.91;7663719;32;40745;-82
2023/09/29 19:32:25;;;;;;;12.82;4.97;;;;;;;20.89;42.49;100255.91;7663773;32;38016;-82
2023/09/29 19:36:41;;;;;;;8.10;4.30;;;;;;;20.63;41.93;100254.00;7661874;32;38015;-83
2023/09/29 19:40:58;;;;;;;9.50;4.37;;;;;;;20.63;41.07;100254.00;7661848;32;39433;-83
2023/09/29 19:45:14;;;;;;;10.93;4.18;;;;;;;20.48;41.69;100265.56;7668888;32;39822;-83
2023/09/29 19:49:31;;;;;;;9.40;4.53;;;;;;;20.40;42.02;100260.81;7669527;32;38011;-83
2023/09/29 19:53:48;;;;;;;11.98;4.50;;;;;;;20.25;42.57;100273.22;7668605;32;36769;-83